sensor_id;sensor_type;location;lat;lon;timestamp;temperature;humidity
62555;DHT22;48610;52.144;8.624;2023-03-02T00:04:57;2.00;99.90
62555;DHT22;48610;52.144;8.624;2023-03-02T00:07:58;2.10;99.90
62555;DHT22;48610;52.144;8.624;2023-03-02T00:10:59;1.80;99.90
62555;DHT22;48610;52.144;8.624;2023-03-02T00:14:00;1.80;99.90
62555;DHT22;48610;52.144;8.624;2023-03-02T00:17:01;2.00;99.90
62555;DHT22;48610;52.144;8.624;2023-03-02T00:20:02;2.00;99.90
62555;DHT22;48610;52.144;8.624;2023-03-02T00:23:09;2.00;99.90
62555;DHT22;48610;52.144;8.624;2023-03-02T00:26:09;2.20;99.90
62555;DHT22;48610;52.144;8.624;2023-03-02T00:29:10;2.20;99.90
62555;DHT22;48610;52.144;8.624;2023-03-02T00:32:10;2.40;99.90
62555;DHT22;48610;52.144;8.624;2023-03-02T00:35:17;2.40;99.90
62555;DHT22;48610;52.144;8.624;2023-03-02T00:38:17;2.40;99.90
62555;DHT22;48610;52.144;8.624;2023-03-02T00:41:18;2.40;99.90
62555;DHT22;48610;52.144;8.624;2023-03-02T00:44:22;2.40;99.90
62555;DHT22;48610;52.144;8.624;2023-03-02T00:47:23;2.10;99.90
62555;DHT22;48610;52.144;8.624;2023-03-02T00:50:23;2.10;99.90
62555;DHT22;48610;52.144;8.624;2023-03-02T00:53:24;2.10;99.90
62555;DHT22;48610;52.144;8.624;2023-03-02T00:56:24;2.00;99.90
62555;DHT22;48610;52.144;8.624;2023-03-02T00:59:25;2.20;99.90
62555;DHT22;48610;52.144;8.624;2023-03-02T01:02:26;2.10;99.90
62555;DHT22;48610;52.144;8.624;2023-03-02T01:05:26;1.80;99.90
62555;DHT22;48610;52.144;8.624;2023-03-02T01:08:27;1.60;99.90
62555;DHT22;48610;52.144;8.624;2023-03-02T01:11:28;1.40;99.90
62555;DHT22;48610;52.144;8.624;2023-03-02T01:14:28;1.50;99.90
62555;DHT22;48610;52.144;8.624;2023-03-02T01:17:29;1.50;99.90
62555;DHT22;48610;52.144;8.624;2023-03-02T01:20:29;1.70;99.90
62555;DHT22;48610;52.144;8.624;2023-03-02T01:23:30;1.80;99.90
62555;DHT22;48610;52.144;8.624;2023-03-02T01:26:30;1.90;99.90
62555;DHT22;48610;52.144;8.624;2023-03-02T01:29:31;2.00;99.90
62555;DHT22;48610;52.144;8.624;2023-03-02T01:32:31;1.90;99.90
62555;DHT22;48610;52.144;8.624;2023-03-02T01:35:32;1.60;99.90
62555;DHT22;48610;52.144;8.624;2023-03-02T01:38:32;1.50;99.90
62555;DHT22;48610;52.144;8.624;2023-03-02T01:41:33;1.30;99.90
62555;DHT22;48610;52.144;8.624;2023-03-02T01:47:40;0.90;99.90
62555;DHT22;48610;52.144;8.624;2023-03-02T01:50:41;0.80;99.90
62555;DHT22;48610;52.144;8.624;2023-03-02T01:53:43;0.80;99.90
62555;DHT22;48610;52.144;8.624;2023-03-02T01:56:46;0.80;99.90
62555;DHT22;48610;52.144;8.624;2023-03-02T01:59:47;0.80;99.90
62555;DHT22;48610;52.144;8.624;2023-03-02T02:02:50;0.70;99.90
62555;DHT22;48610;52.144;8.624;2023-03-02T02:09:19;0.80;99.90
62555;DHT22;48610;52.144;8.624;2023-03-02T02:12:22;0.80;99.90
62555;DHT22;48610;52.144;8.624;2023-03-02T02:15:23;0.80;99.90
62555;DHT22;48610;52.144;8.624;2023-03-02T02:18:24;0.80;99.90
62555;DHT22;48610;52.144;8.624;2023-03-02T02:21:27;0.70;99.90
62555;DHT22;48610;52.144;8.624;2023-03-02T02:24:43;0.70;99.90
62555;DHT22;48610;52.144;8.624;2023-03-02T02:27:45;0.60;99.90
62555;DHT22;48610;52.144;8.624;2023-03-02T02:30:50;0.60;99.90
62555;DHT22;48610;52.144;8.624;2023-03-02T02:34:21;0.60;99.90
62555;DHT22;48610;52.144;8.624;2023-03-02T02:37:29;0.70;99.90
62555;DHT22;48610;52.144;8.624;2023-03-02T02:40:50;0.70;99.90
62555;DHT22;48610;52.144;8.624;2023-03-02T02:43:52;0.80;99.90
62555;DHT22;48610;52.144;8.624;2023-03-02T02:46:54;0.90;99.90
62555;DHT22;48610;52.144;8.624;2023-03-02T02:49:55;0.90;99.90
62555;DHT22;48610;52.144;8.624;2023-03-02T02:53:19;0.90;99.90
62555;DHT22;48610;52.144;8.624;2023-03-02T02:56:21;0.90;99.90
62555;DHT22;48610;52.144;8.624;2023-03-02T02:59:29;1.10;99.90
62555;DHT22;48610;52.144;8.624;2023-03-02T03:02:36;1.20;99.90
62555;DHT22;48610;52.144;8.624;2023-03-02T03:05:38;1.20;99.90
62555;DHT22;48610;52.144;8.624;2023-03-02T03:11:49;1.20;99.90
62555;DHT22;48610;52.144;8.624;2023-03-02T03:14:51;1.20;99.90
62555;DHT22;48610;52.144;8.624;2023-03-02T03:17:54;1.20;99.90
62555;DHT22;48610;52.144;8.624;2023-03-02T03:20:55;1.20;99.90
62555;DHT22;48610;52.144;8.624;2023-03-02T03:23:56;1.10;99.90
62555;DHT22;48610;52.144;8.624;2023-03-02T03:26:57;1.00;99.90
62555;DHT22;48610;52.144;8.624;2023-03-02T03:29:58;1.10;99.90
62555;DHT22;48610;52.144;8.624;2023-03-02T03:33:01;1.20;99.90
62555;DHT22;48610;52.144;8.624;2023-03-02T03:36:01;1.40;99.90
62555;DHT22;48610;52.144;8.624;2023-03-02T03:39:03;1.40;99.90
62555;DHT22;48610;52.144;8.624;2023-03-02T03:42:05;1.40;99.90
62555;DHT22;48610;52.144;8.624;2023-03-02T03:45:06;1.40;99.90
62555;DHT22;48610;52.144;8.624;2023-03-02T03:48:08;1.40;99.90
62555;DHT22;48610;52.144;8.624;2023-03-02T03:51:09;1.40;99.90
62555;DHT22;48610;52.144;8.624;2023-03-02T03:54:09;1.40;99.90
62555;DHT22;48610;52.144;8.624;2023-03-02T03:57:10;1.20;99.90
62555;DHT22;48610;52.144;8.624;2023-03-02T04:00:13;1.10;99.90
62555;DHT22;48610;52.144;8.624;2023-03-02T04:03:17;1.10;99.90
62555;DHT22;48610;52.144;8.624;2023-03-02T04:06:19;1.00;99.90
62555;DHT22;48610;52.144;8.624;2023-03-02T04:09:21;0.90;99.90
62555;DHT22;48610;52.144;8.624;2023-03-02T04:12:22;1.00;99.90
62555;DHT22;48610;52.144;8.624;2023-03-02T04:15:23;1.10;99.90
62555;DHT22;48610;52.144;8.624;2023-03-02T04:18:23;1.30;99.90
62555;DHT22;48610;52.144;8.624;2023-03-02T04:21:24;1.00;99.90
62555;DHT22;48610;52.144;8.624;2023-03-02T04:24:25;1.10;99.90
62555;DHT22;48610;52.144;8.624;2023-03-02T04:27:25;0.90;99.90
62555;DHT22;48610;52.144;8.624;2023-03-02T04:30:26;0.60;99.90
62555;DHT22;48610;52.144;8.624;2023-03-02T04:33:27;0.40;99.90
62555;DHT22;48610;52.144;8.624;2023-03-02T04:36:27;0.40;99.90
62555;DHT22;48610;52.144;8.624;2023-03-02T04:39:28;0.40;99.90
62555;DHT22;48610;52.144;8.624;2023-03-02T04:42:29;0.40;99.90
62555;DHT22;48610;52.144;8.624;2023-03-02T04:45:29;0.20;99.90
62555;DHT22;48610;52.144;8.624;2023-03-02T04:48:30;0.30;99.90
62555;DHT22;48610;52.144;8.624;2023-03-02T04:51:34;0.30;99.90
62555;DHT22;48610;52.144;8.624;2023-03-02T04:54:34;0.40;99.90
62555;DHT22;48610;52.144;8.624;2023-03-02T04:57:35;0.70;99.90
62555;DHT22;48610;52.144;8.624;2023-03-02T05:00:36;0.80;99.90
62555;DHT22;48610;52.144;8.624;2023-03-02T05:03:36;0.80;99.90
62555;DHT22;48610;52.144;8.624;2023-03-02T05:06:37;0.80;99.90
62555;DHT22;48610;52.144;8.624;2023-03-02T05:09:38;0.80;99.90
62555;DHT22;48610;52.144;8.624;2023-03-02T05:12:38;0.90;99.90
62555;DHT22;48610;52.144;8.624;2023-03-02T05:16:08;1.00;99.90
62555;DHT22;48610;52.144;8.624;2023-03-02T05:19:10;0.70;99.90
62555;DHT22;48610;52.144;8.624;2023-03-02T05:22:11;0.50;99.90
62555;DHT22;48610;52.144;8.624;2023-03-02T05:25:13;0.60;99.90
62555;DHT22;48610;52.144;8.624;2023-03-02T05:28:13;0.40;99.90
62555;DHT22;48610;52.144;8.624;2023-03-02T05:31:23;0.20;99.90
62555;DHT22;48610;52.144;8.624;2023-03-02T05:34:26;0.30;99.90
62555;DHT22;48610;52.144;8.624;2023-03-02T05:37:27;0.50;99.90
62555;DHT22;48610;52.144;8.624;2023-03-02T05:40:28;0.20;99.90
62555;DHT22;48610;52.144;8.624;2023-03-02T05:43:30;0.10;99.90
62555;DHT22;48610;52.144;8.624;2023-03-02T05:46:31;0.00;99.90
62555;DHT22;48610;52.144;8.624;2023-03-02T05:49:32;0.00;99.90
62555;DHT22;48610;52.144;8.624;2023-03-02T05:52:32;0.00;99.90
62555;DHT22;48610;52.144;8.624;2023-03-02T05:55:33;0.20;99.90
62555;DHT22;48610;52.144;8.624;2023-03-02T05:58:36;0.00;99.90
62555;DHT22;48610;52.144;8.624;2023-03-02T06:01:37;-0.20;99.90
62555;DHT22;48610;52.144;8.624;2023-03-02T06:04:38;0.00;99.90
62555;DHT22;48610;52.144;8.624;2023-03-02T06:07:42;0.10;99.90
62555;DHT22;48610;52.144;8.624;2023-03-02T06:10:44;0.20;99.90
62555;DHT22;48610;52.144;8.624;2023-03-02T06:13:45;0.40;99.90
62555;DHT22;48610;52.144;8.624;2023-03-02T06:16:45;0.40;99.90
62555;DHT22;48610;52.144;8.624;2023-03-02T06:19:48;0.40;99.90
62555;DHT22;48610;52.144;8.624;2023-03-02T06:22:48;0.20;99.90
62555;DHT22;48610;52.144;8.624;2023-03-02T06:25:49;0.10;99.90
62555;DHT22;48610;52.144;8.624;2023-03-02T06:28:49;0.00;99.90
62555;DHT22;48610;52.144;8.624;2023-03-02T06:31:50;0.10;99.90
62555;DHT22;48610;52.144;8.624;2023-03-02T06:34:50;0.20;99.90
62555;DHT22;48610;52.144;8.624;2023-03-02T06:37:52;0.10;99.90
62555;DHT22;48610;52.144;8.624;2023-03-02T06:40:53;0.00;99.90
62555;DHT22;48610;52.144;8.624;2023-03-02T06:43:53;0.10;99.90
62555;DHT22;48610;52.144;8.624;2023-03-02T06:46:54;0.00;99.90
62555;DHT22;48610;52.144;8.624;2023-03-02T06:49:55;0.00;99.90
62555;DHT22;48610;52.144;8.624;2023-03-02T06:52:56;-0.10;99.90
62555;DHT22;48610;52.144;8.624;2023-03-02T06:55:56;0.00;99.90
62555;DHT22;48610;52.144;8.624;2023-03-02T06:58:57;0.10;99.90
62555;DHT22;48610;52.144;8.624;2023-03-02T07:01:58;0.20;99.90
62555;DHT22;48610;52.144;8.624;2023-03-02T07:04:58;0.30;99.90
62555;DHT22;48610;52.144;8.624;2023-03-02T07:07:59;0.40;99.90
62555;DHT22;48610;52.144;8.624;2023-03-02T07:11:04;0.50;99.90
62555;DHT22;48610;52.144;8.624;2023-03-02T07:14:05;0.40;99.90
62555;DHT22;48610;52.144;8.624;2023-03-02T07:17:06;0.40;99.90
62555;DHT22;48610;52.144;8.624;2023-03-02T07:20:09;0.30;99.90
62555;DHT22;48610;52.144;8.624;2023-03-02T07:23:09;0.40;99.90
62555;DHT22;48610;52.144;8.624;2023-03-02T07:26:10;0.60;99.90
62555;DHT22;48610;52.144;8.624;2023-03-02T07:29:11;0.60;99.90
62555;DHT22;48610;52.144;8.624;2023-03-02T07:32:11;0.80;99.90
62555;DHT22;48610;52.144;8.624;2023-03-02T07:35:12;0.80;99.90
62555;DHT22;48610;52.144;8.624;2023-03-02T07:38:12;0.90;99.90
62555;DHT22;48610;52.144;8.624;2023-03-02T07:41:13;0.90;99.90
62555;DHT22;48610;52.144;8.624;2023-03-02T07:44:16;1.00;99.90
62555;DHT22;48610;52.144;8.624;2023-03-02T07:47:16;0.60;99.90
62555;DHT22;48610;52.144;8.624;2023-03-02T07:50:17;0.60;99.90
62555;DHT22;48610;52.144;8.624;2023-03-02T07:53:17;0.70;99.90
62555;DHT22;48610;52.144;8.624;2023-03-02T07:56:18;0.80;99.90
62555;DHT22;48610;52.144;8.624;2023-03-02T07:59:19;0.90;99.90
62555;DHT22;48610;52.144;8.624;2023-03-02T08:02:20;0.90;99.90
62555;DHT22;48610;52.144;8.624;2023-03-02T08:05:20;1.00;99.90
62555;DHT22;48610;52.144;8.624;2023-03-02T08:08:21;1.10;99.90
62555;DHT22;48610;52.144;8.624;2023-03-02T08:11:22;1.00;99.90
62555;DHT22;48610;52.144;8.624;2023-03-02T08:14:22;1.10;99.90
62555;DHT22;48610;52.144;8.624;2023-03-02T08:17:23;1.20;99.90
62555;DHT22;48610;52.144;8.624;2023-03-02T08:20:23;1.20;99.90
62555;DHT22;48610;52.144;8.624;2023-03-02T08:23:24;1.10;99.90
62555;DHT22;48610;52.144;8.624;2023-03-02T08:26:25;1.10;99.90
62555;DHT22;48610;52.144;8.624;2023-03-02T08:29:26;1.20;99.90
62555;DHT22;48610;52.144;8.624;2023-03-02T08:32:27;1.30;99.90
62555;DHT22;48610;52.144;8.624;2023-03-02T08:35:27;1.40;99.90
62555;DHT22;48610;52.144;8.624;2023-03-02T08:38:29;1.70;99.90
62555;DHT22;48610;52.144;8.624;2023-03-02T08:41:29;2.00;99.90
62555;DHT22;48610;52.144;8.624;2023-03-02T08:44:30;2.30;99.90
62555;DHT22;48610;52.144;8.624;2023-03-02T08:47:30;2.60;99.90
62555;DHT22;48610;52.144;8.624;2023-03-02T08:50:31;2.80;99.90
62555;DHT22;48610;52.144;8.624;2023-03-02T08:53:35;3.20;99.90
62555;DHT22;48610;52.144;8.624;2023-03-02T08:56:37;3.50;99.90
62555;DHT22;48610;52.144;8.624;2023-03-02T08:59:38;3.70;99.90
62555;DHT22;48610;52.144;8.624;2023-03-02T09:02:39;3.80;99.90
62555;DHT22;48610;52.144;8.624;2023-03-02T09:05:40;3.80;99.90
62555;DHT22;48610;52.144;8.624;2023-03-02T09:08:41;4.00;99.90
62555;DHT22;48610;52.144;8.624;2023-03-02T09:11:42;4.20;99.90
62555;DHT22;48610;52.144;8.624;2023-03-02T09:14:44;4.20;99.90
62555;DHT22;48610;52.144;8.624;2023-03-02T09:17:44;4.10;99.90
62555;DHT22;48610;52.144;8.624;2023-03-02T09:20:49;4.00;99.90
62555;DHT22;48610;52.144;8.624;2023-03-02T09:23:50;4.30;99.90
62555;DHT22;48610;52.144;8.624;2023-03-02T09:26:54;4.70;99.90
62555;DHT22;48610;52.144;8.624;2023-03-02T09:29:56;4.80;99.90
62555;DHT22;48610;52.144;8.624;2023-03-02T09:32:56;4.60;99.90
62555;DHT22;48610;52.144;8.624;2023-03-02T09:35:57;4.50;99.90
62555;DHT22;48610;52.144;8.624;2023-03-02T09:38:57;4.80;99.90
62555;DHT22;48610;52.144;8.624;2023-03-02T09:42:30;4.80;99.90
62555;DHT22;48610;52.144;8.624;2023-03-02T09:46:09;4.80;99.90
62555;DHT22;48610;52.144;8.624;2023-03-02T09:49:46;5.10;99.90
62555;DHT22;48610;52.144;8.624;2023-03-02T09:55:58;5.60;99.90
62555;DHT22;48610;52.144;8.624;2023-03-02T09:59:12;5.50;99.90
62555;DHT22;48610;52.144;8.624;2023-03-02T10:02:24;5.50;99.90
62555;DHT22;48610;52.144;8.624;2023-03-02T10:05:33;6.00;99.90
62555;DHT22;48610;52.144;8.624;2023-03-02T10:08:36;6.30;99.90
62555;DHT22;48610;52.144;8.624;2023-03-02T10:14:56;6.80;99.90
62555;DHT22;48610;52.144;8.624;2023-03-02T10:21:40;6.90;99.90
62555;DHT22;48610;52.144;8.624;2023-03-02T10:28:29;6.80;99.90
62555;DHT22;48610;52.144;8.624;2023-03-02T10:31:32;6.50;99.90
62555;DHT22;48610;52.144;8.624;2023-03-02T10:34:35;6.40;99.90
62555;DHT22;48610;52.144;8.624;2023-03-02T10:37:36;6.60;99.90
62555;DHT22;48610;52.144;8.624;2023-03-02T10:43:46;6.90;99.90
62555;DHT22;48610;52.144;8.624;2023-03-02T10:46:48;7.40;99.90
62555;DHT22;48610;52.144;8.624;2023-03-02T10:49:51;7.30;99.90
62555;DHT22;48610;52.144;8.624;2023-03-02T10:52:52;7.30;99.90
62555;DHT22;48610;52.144;8.624;2023-03-02T10:55:53;7.40;99.90
62555;DHT22;48610;52.144;8.624;2023-03-02T10:58:53;7.80;99.90
62555;DHT22;48610;52.144;8.624;2023-03-02T11:02:22;7.40;99.90
62555;DHT22;48610;52.144;8.624;2023-03-02T11:05:36;6.70;99.90
62555;DHT22;48610;52.144;8.624;2023-03-02T11:08:37;7.00;99.90
62555;DHT22;48610;52.144;8.624;2023-03-02T11:11:37;7.00;99.90
62555;DHT22;48610;52.144;8.624;2023-03-02T11:14:38;7.00;99.90
62555;DHT22;48610;52.144;8.624;2023-03-02T11:17:39;6.70;99.90
62555;DHT22;48610;52.144;8.624;2023-03-02T11:20:43;7.10;99.90
62555;DHT22;48610;52.144;8.624;2023-03-02T11:23:58;7.20;99.90
62555;DHT22;48610;52.144;8.624;2023-03-02T11:27:06;7.80;99.90
62555;DHT22;48610;52.144;8.624;2023-03-02T11:30:16;8.30;99.90
62555;DHT22;48610;52.144;8.624;2023-03-02T11:33:28;7.90;99.90
62555;DHT22;48610;52.144;8.624;2023-03-02T11:36:42;7.70;99.90
62555;DHT22;48610;52.144;8.624;2023-03-02T11:43:08;8.30;99.90
62555;DHT22;48610;52.144;8.624;2023-03-02T11:46:20;8.30;99.90
62555;DHT22;48610;52.144;8.624;2023-03-02T11:49:25;8.90;99.90
62555;DHT22;48610;52.144;8.624;2023-03-02T11:52:31;9.00;99.90
62555;DHT22;48610;52.144;8.624;2023-03-02T11:55:43;9.40;99.90
62555;DHT22;48610;52.144;8.624;2023-03-02T11:58:48;9.20;99.90
62555;DHT22;48610;52.144;8.624;2023-03-02T12:01:53;9.00;99.90
62555;DHT22;48610;52.144;8.624;2023-03-02T12:05:06;8.90;99.90
62555;DHT22;48610;52.144;8.624;2023-03-02T12:08:31;8.90;99.90
62555;DHT22;48610;52.144;8.624;2023-03-02T12:11:36;8.90;99.90
62555;DHT22;48610;52.144;8.624;2023-03-02T12:14:39;8.80;99.90
62555;DHT22;48610;52.144;8.624;2023-03-02T12:17:40;8.70;99.90
62555;DHT22;48610;52.144;8.624;2023-03-02T12:20:41;9.30;99.90
62555;DHT22;48610;52.144;8.624;2023-03-02T12:27:44;9.40;99.90
62555;DHT22;48610;52.144;8.624;2023-03-02T12:30:26;9.70;99.90
62555;DHT22;48610;52.144;8.624;2023-03-02T12:33:27;9.30;99.90
62555;DHT22;48610;52.144;8.624;2023-03-02T12:36:31;9.40;99.90
62555;DHT22;48610;52.144;8.624;2023-03-02T12:43:24;8.80;99.90
62555;DHT22;48610;52.144;8.624;2023-03-02T12:46:29;9.20;99.90
62555;DHT22;48610;52.144;8.624;2023-03-02T12:49:50;9.40;99.90
62555;DHT22;48610;52.144;8.624;2023-03-02T12:53:04;9.60;99.90
62555;DHT22;48610;52.144;8.624;2023-03-02T12:56:07;9.20;99.90
62555;DHT22;48610;52.144;8.624;2023-03-02T12:59:26;8.50;99.90
62555;DHT22;48610;52.144;8.624;2023-03-02T13:02:34;8.50;99.90
62555;DHT22;48610;52.144;8.624;2023-03-02T13:05:35;8.30;99.90
62555;DHT22;48610;52.144;8.624;2023-03-02T13:08:36;8.40;99.90
62555;DHT22;48610;52.144;8.624;2023-03-02T13:11:37;8.30;99.90
62555;DHT22;48610;52.144;8.624;2023-03-02T13:14:40;8.50;99.90
62555;DHT22;48610;52.144;8.624;2023-03-02T13:17:44;8.40;99.90
62555;DHT22;48610;52.144;8.624;2023-03-02T13:20:44;8.40;99.90
62555;DHT22;48610;52.144;8.624;2023-03-02T13:23:49;8.40;99.90
62555;DHT22;48610;52.144;8.624;2023-03-02T13:26:57;8.70;99.90
62555;DHT22;48610;52.144;8.624;2023-03-02T13:30:10;8.70;99.90
62555;DHT22;48610;52.144;8.624;2023-03-02T13:33:20;9.00;99.90
62555;DHT22;48610;52.144;8.624;2023-03-02T13:36:33;9.10;99.90
62555;DHT22;48610;52.144;8.624;2023-03-02T13:39:35;8.90;99.90
62555;DHT22;48610;52.144;8.624;2023-03-02T13:42:39;8.20;99.90
62555;DHT22;48610;52.144;8.624;2023-03-02T13:45:53;8.00;99.90
62555;DHT22;48610;52.144;8.624;2023-03-02T13:49:00;8.20;99.90
62555;DHT22;48610;52.144;8.624;2023-03-02T13:52:07;8.10;99.90
62555;DHT22;48610;52.144;8.624;2023-03-02T13:55:18;8.30;99.90
62555;DHT22;48610;52.144;8.624;2023-03-02T13:58:20;8.20;99.90
62555;DHT22;48610;52.144;8.624;2023-03-02T14:01:21;8.30;99.90
62555;DHT22;48610;52.144;8.624;2023-03-02T14:04:22;8.20;99.90
62555;DHT22;48610;52.144;8.624;2023-03-02T14:07:23;8.20;99.90
62555;DHT22;48610;52.144;8.624;2023-03-02T14:10:24;8.40;99.90
62555;DHT22;48610;52.144;8.624;2023-03-02T14:13:33;8.10;99.90
62555;DHT22;48610;52.144;8.624;2023-03-02T14:16:35;7.80;99.90
62555;DHT22;48610;52.144;8.624;2023-03-02T14:19:37;7.90;99.90
62555;DHT22;48610;52.144;8.624;2023-03-02T14:22:37;7.40;99.90
62555;DHT22;48610;52.144;8.624;2023-03-02T14:25:38;7.20;99.90
62555;DHT22;48610;52.144;8.624;2023-03-02T14:28:39;7.30;99.90
62555;DHT22;48610;52.144;8.624;2023-03-02T14:31:39;7.10;99.90
62555;DHT22;48610;52.144;8.624;2023-03-02T14:34:40;7.30;99.90
62555;DHT22;48610;52.144;8.624;2023-03-02T14:37:48;7.50;99.90
62555;DHT22;48610;52.144;8.624;2023-03-02T14:40:49;7.50;99.90
62555;DHT22;48610;52.144;8.624;2023-03-02T14:43:50;7.10;99.90
62555;DHT22;48610;52.144;8.624;2023-03-02T14:46:50;7.00;99.90
62555;DHT22;48610;52.144;8.624;2023-03-02T14:49:52;7.20;99.90
62555;DHT22;48610;52.144;8.624;2023-03-02T14:52:54;7.40;99.90
62555;DHT22;48610;52.144;8.624;2023-03-02T14:55:55;7.20;99.90
62555;DHT22;48610;52.144;8.624;2023-03-02T14:58:57;7.10;99.90
62555;DHT22;48610;52.144;8.624;2023-03-02T15:01:59;7.10;99.90
62555;DHT22;48610;52.144;8.624;2023-03-02T15:04:59;7.20;99.90
62555;DHT22;48610;52.144;8.624;2023-03-02T15:08:00;7.20;99.90
62555;DHT22;48610;52.144;8.624;2023-03-02T15:11:00;7.10;99.90
62555;DHT22;48610;52.144;8.624;2023-03-02T15:14:01;7.00;99.90
62555;DHT22;48610;52.144;8.624;2023-03-02T15:17:02;6.70;99.90
62555;DHT22;48610;52.144;8.624;2023-03-02T15:20:03;6.80;99.90
62555;DHT22;48610;52.144;8.624;2023-03-02T15:23:05;6.60;99.90
62555;DHT22;48610;52.144;8.624;2023-03-02T15:26:06;6.60;99.90
62555;DHT22;48610;52.144;8.624;2023-03-02T15:29:06;6.30;99.90
62555;DHT22;48610;52.144;8.624;2023-03-02T15:32:07;6.10;99.90
62555;DHT22;48610;52.144;8.624;2023-03-02T15:35:08;5.90;99.90
62555;DHT22;48610;52.144;8.624;2023-03-02T15:38:10;5.90;99.90
62555;DHT22;48610;52.144;8.624;2023-03-02T15:41:12;5.60;99.90
62555;DHT22;48610;52.144;8.624;2023-03-02T15:44:21;5.20;99.90
62555;DHT22;48610;52.144;8.624;2023-03-02T15:47:23;4.90;99.90
62555;DHT22;48610;52.144;8.624;2023-03-02T15:50:23;4.60;99.90
62555;DHT22;48610;52.144;8.624;2023-03-02T15:53:25;4.60;99.90
62555;DHT22;48610;52.144;8.624;2023-03-02T15:56:25;4.60;99.90
62555;DHT22;48610;52.144;8.624;2023-03-02T15:59:28;4.70;99.90
62555;DHT22;48610;52.144;8.624;2023-03-02T16:02:28;4.90;99.90
62555;DHT22;48610;52.144;8.624;2023-03-02T16:05:29;4.90;99.90
62555;DHT22;48610;52.144;8.624;2023-03-02T16:08:30;4.60;99.90
62555;DHT22;48610;52.144;8.624;2023-03-02T16:11:30;4.50;99.90
62555;DHT22;48610;52.144;8.624;2023-03-02T16:14:32;4.40;99.90
62555;DHT22;48610;52.144;8.624;2023-03-02T16:17:33;4.30;99.90
62555;DHT22;48610;52.144;8.624;2023-03-02T16:20:37;4.40;99.90
62555;DHT22;48610;52.144;8.624;2023-03-02T16:23:38;4.30;99.90
62555;DHT22;48610;52.144;8.624;2023-03-02T16:26:38;4.10;99.90
62555;DHT22;48610;52.144;8.624;2023-03-02T16:29:39;4.10;99.90
62555;DHT22;48610;52.144;8.624;2023-03-02T16:32:40;4.10;99.90
62555;DHT22;48610;52.144;8.624;2023-03-02T16:35:41;4.00;99.90
62555;DHT22;48610;52.144;8.624;2023-03-02T16:38:41;4.00;99.90
62555;DHT22;48610;52.144;8.624;2023-03-02T16:41:43;4.00;99.90
62555;DHT22;48610;52.144;8.624;2023-03-02T16:44:48;4.00;99.90
62555;DHT22;48610;52.144;8.624;2023-03-02T16:47:49;3.90;99.90
62555;DHT22;48610;52.144;8.624;2023-03-02T16:50:56;3.80;99.90
62555;DHT22;48610;52.144;8.624;2023-03-02T16:53:57;3.70;99.90
62555;DHT22;48610;52.144;8.624;2023-03-02T16:56:57;3.70;99.90
62555;DHT22;48610;52.144;8.624;2023-03-02T16:59:58;3.70;99.90
62555;DHT22;48610;52.144;8.624;2023-03-02T17:02:59;3.80;99.90
62555;DHT22;48610;52.144;8.624;2023-03-02T17:06:04;3.80;99.90
62555;DHT22;48610;52.144;8.624;2023-03-02T17:09:05;3.70;99.90
62555;DHT22;48610;52.144;8.624;2023-03-02T17:12:05;3.60;99.90
62555;DHT22;48610;52.144;8.624;2023-03-02T17:15:06;3.70;99.90
62555;DHT22;48610;52.144;8.624;2023-03-02T17:18:07;3.70;99.90
62555;DHT22;48610;52.144;8.624;2023-03-02T17:21:08;3.60;99.90
62555;DHT22;48610;52.144;8.624;2023-03-02T17:24:09;3.70;99.90
62555;DHT22;48610;52.144;8.624;2023-03-02T17:27:19;3.30;99.90
62555;DHT22;48610;52.144;8.624;2023-03-02T17:30:29;3.30;99.90
62555;DHT22;48610;52.144;8.624;2023-03-02T17:33:30;3.30;99.90
62555;DHT22;48610;52.144;8.624;2023-03-02T17:36:35;3.40;99.90
62555;DHT22;48610;52.144;8.624;2023-03-02T17:40:00;3.20;99.90
62555;DHT22;48610;52.144;8.624;2023-03-02T17:43:00;3.20;99.90
62555;DHT22;48610;52.144;8.624;2023-03-02T17:46:14;3.30;99.90
62555;DHT22;48610;52.144;8.624;2023-03-02T17:49:15;3.40;99.90
62555;DHT22;48610;52.144;8.624;2023-03-02T17:52:17;3.40;99.90
62555;DHT22;48610;52.144;8.624;2023-03-02T17:55:17;3.30;99.90
62555;DHT22;48610;52.144;8.624;2023-03-02T17:58:20;3.40;99.90
62555;DHT22;48610;52.144;8.624;2023-03-02T18:01:22;3.30;99.90
62555;DHT22;48610;52.144;8.624;2023-03-02T18:04:22;3.40;99.90
62555;DHT22;48610;52.144;8.624;2023-03-02T18:07:23;3.30;99.90
62555;DHT22;48610;52.144;8.624;2023-03-02T18:10:24;3.30;99.90
62555;DHT22;48610;52.144;8.624;2023-03-02T18:13:25;3.30;99.90
62555;DHT22;48610;52.144;8.624;2023-03-02T18:16:26;3.30;99.90
62555;DHT22;48610;52.144;8.624;2023-03-02T18:19:28;3.30;99.90
62555;DHT22;48610;52.144;8.624;2023-03-02T18:22:30;3.10;99.90
62555;DHT22;48610;52.144;8.624;2023-03-02T18:25:30;3.10;99.90
62555;DHT22;48610;52.144;8.624;2023-03-02T18:28:31;3.20;99.90
62555;DHT22;48610;52.144;8.624;2023-03-02T18:31:32;3.30;99.90
62555;DHT22;48610;52.144;8.624;2023-03-02T18:34:33;3.40;99.90
62555;DHT22;48610;52.144;8.624;2023-03-02T18:37:34;3.50;99.90
62555;DHT22;48610;52.144;8.624;2023-03-02T18:40:34;3.50;99.90
62555;DHT22;48610;52.144;8.624;2023-03-02T18:43:38;3.80;99.90
62555;DHT22;48610;52.144;8.624;2023-03-02T18:46:39;3.60;99.90
62555;DHT22;48610;52.144;8.624;2023-03-02T18:49:40;3.60;99.90
62555;DHT22;48610;52.144;8.624;2023-03-02T18:52:42;3.70;99.90
62555;DHT22;48610;52.144;8.624;2023-03-02T18:55:43;3.50;99.90
62555;DHT22;48610;52.144;8.624;2023-03-02T18:58:44;3.40;99.90
62555;DHT22;48610;52.144;8.624;2023-03-02T19:01:45;3.20;99.90
62555;DHT22;48610;52.144;8.624;2023-03-02T19:04:46;3.30;99.90
62555;DHT22;48610;52.144;8.624;2023-03-02T19:07:47;3.30;99.90
62555;DHT22;48610;52.144;8.624;2023-03-02T19:10:50;3.20;99.90
62555;DHT22;48610;52.144;8.624;2023-03-02T19:13:51;3.00;99.90
62555;DHT22;48610;52.144;8.624;2023-03-02T19:16:51;3.00;99.90
62555;DHT22;48610;52.144;8.624;2023-03-02T19:19:52;3.10;99.90
62555;DHT22;48610;52.144;8.624;2023-03-02T19:22:55;3.10;99.90
62555;DHT22;48610;52.144;8.624;2023-03-02T19:25:57;3.00;99.90
62555;DHT22;48610;52.144;8.624;2023-03-02T19:28:58;3.00;99.90
62555;DHT22;48610;52.144;8.624;2023-03-02T19:31:59;3.00;99.90
62555;DHT22;48610;52.144;8.624;2023-03-02T19:35:03;3.10;99.90
62555;DHT22;48610;52.144;8.624;2023-03-02T19:38:05;3.30;99.90
62555;DHT22;48610;52.144;8.624;2023-03-02T19:41:10;3.20;99.90
62555;DHT22;48610;52.144;8.624;2023-03-02T19:44:10;3.20;99.90
62555;DHT22;48610;52.144;8.624;2023-03-02T19:47:11;3.10;99.90
62555;DHT22;48610;52.144;8.624;2023-03-02T19:50:14;3.30;99.90
62555;DHT22;48610;52.144;8.624;2023-03-02T19:53:15;3.50;99.90
62555;DHT22;48610;52.144;8.624;2023-03-02T19:56:18;3.50;99.90
62555;DHT22;48610;52.144;8.624;2023-03-02T19:59:22;3.70;99.90
62555;DHT22;48610;52.144;8.624;2023-03-02T20:02:22;3.80;99.90
62555;DHT22;48610;52.144;8.624;2023-03-02T20:05:27;3.80;99.90
62555;DHT22;48610;52.144;8.624;2023-03-02T20:08:28;3.80;99.90
62555;DHT22;48610;52.144;8.624;2023-03-02T20:11:28;3.70;99.90
62555;DHT22;48610;52.144;8.624;2023-03-02T20:14:30;3.80;99.90